Time;durP1;ratioP1;P1;durP2;ratioP2;P2;SDS_P1;SDS_P2;PMS_P1;PMS_P2;Temp;Humidity;BMP_temperature;BMP_pressure;BME280_temperature;BME280_humidity;BME280_pressure;Samples;Min_cycle;Max_cycle;Signal;HPM_P1;HPM_P2
2021/10/14 00:36:20;;;;;;;25.60;17.55;;;;;;;17.10;72.98;99738.69;5124597;27;20789;-63
2021/10/14 00:39:05;;;;;;;30.63;19.20;;;;;;;15.28;86.32;99741.25;5069547;28;20063;-62
2021/10/14 00:41:50;;;;;;;;;;;;;;;14.70;95.77;99736.38;5078108;28;20067;-64
2021/10/14 00:44:46;;;;;;;31.33;18.52;;;;;;;13.97;100.00;99725.69;5078756;28;19946;-66
2021/10/14 00:47:32;;;;;;;32.55;19.90;;;;;;;13.32;100.00;99723.41;5069787;28;20113;-65
2021/10/14 00:50:16;;;;;;;38.95;20.65;;;;;;;13.09;100.00;99715.25;5078340;28;20534;-65
2021/10/14 00:53:01;;;;;;;35.92;20.27;;;;;;;12.89;100.00;99719.41;5064698;28;20048;-63
2021/10/14 00:55:48;;;;;;;;;;;;;;;12.82;100.00;99715.19;5063153;28;20050;-63
2021/10/14 00:58:34;;;;;;;47.25;25.02;;;;;;;12.58;100.00;99716.78;5065421;28;19942;-63
2021/10/14 01:01:19;;;;;;;49.70;27.15;;;;;;;12.44;100.00;99713.66;5083299;28;20047;-62
2021/10/14 01:04:06;;;;;;;49.33;26.58;;;;;;;12.35;100.00;99708.56;5082124;28;20800;-67
2021/10/14 01:06:51;;;;;;;51.90;29.80;;;;;;;12.10;100.00;99715.50;5065927;28;20055;-65
2021/10/14 01:09:36;;;;;;;50.55;29.40;;;;;;;12.01;100.00;99706.88;5067516;28;20412;-63
2021/10/14 01:12:22;;;;;;;52.20;28.77;;;;;;;11.91;100.00;99703.59;5080660;28;20055;-62
2021/10/14 01:15:24;;;;;;;51.13;28.45;;;;;;;11.92;100.00;99708.03;5082350;28;20058;-63
2021/10/14 01:18:09;;;;;;;55.13;28.85;;;;;;;11.84;100.00;99704.69;5080131;28;20265;-64
2021/10/14 01:20:53;;;;;;;57.17;29.42;;;;;;;11.77;100.00;99704.88;5082459;28;20063;-62
2021/10/14 01:23:38;;;;;;;55.78;30.33;;;;;;;11.74;100.00;99708.50;5080829;28;20097;-65
2021/10/14 01:26:23;;;;;;;51.65;27.95;;;;;;;11.70;100.00;99700.63;5080755;28;20581;-66
2021/10/14 01:29:09;;;;;;;52.20;29.60;;;;;;;11.60;100.00;99693.78;5079257;28;20087;-70
2021/10/14 01:31:53;;;;;;;49.42;29.42;;;;;;;11.53;100.00;99700.16;5070919;28;20043;-63
2021/10/14 01:34:38;;;;;;;46.88;27.65;;;;;;;11.51;100.00;99700.19;5078750;28;20059;-65
2021/10/14 01:37:22;;;;;;;50.47;29.27;;;;;;;11.51;100.00;99710.81;5065530;28;20051;-64
2021/10/14 01:40:08;;;;;;;51.28;28.05;;;;;;;11.49;100.00;99698.47;5078860;28;20050;-64
2021/10/14 01:42:52;;;;;;;54.72;29.02;;;;;;;11.45;100.00;99699.47;5078182;28;20090;-65
2021/10/14 01:45:36;;;;;;;49.47;26.90;;;;;;;11.47;100.00;99693.22;5048695;28;20138;-66
2021/10/14 01:48:21;;;;;;;51.13;28.90;;;;;;;11.47;100.00;99695.84;5067151;28;20052;-68
2021/10/14 01:51:09;;;;;;;44.03;26.83;;;;;;;11.48;100.00;99694.09;5057770;28;20539;-67
2021/10/14 01:53:54;;;;;;;48.67;28.23;;;;;;;11.40;100.00;99699.56;5064122;28;20424;-62
2021/10/14 01:56:38;;;;;;;46.72;27.27;;;;;;;11.38;100.00;99701.41;5066071;28;20586;-64
2021/10/14 01:59:23;;;;;;;44.00;26.08;;;;;;;11.43;100.00;99698.66;5066312;28;20067;-63
2021/10/14 02:02:08;;;;;;;45.30;26.25;;;;;;;11.39;100.00;99697.84;5066775;28;20055;-62
2021/10/14 02:04:53;;;;;;;47.65;26.27;;;;;;;11.37;100.00;99698.78;5060582;28;20052;-64
2021/10/14 02:07:38;;;;;;;43.90;25.30;;;;;;;11.40;100.00;99696.06;5065802;28;20613;-64
2021/10/14 02:10:23;;;;;;;44.55;25.33;;;;;;;11.43;100.00;99703.97;5056035;28;20114;-63
2021/10/14 02:13:07;;;;;;;43.95;22.77;;;;;;;11.48;100.00;99702.06;5064720;28;20051;-64
2021/10/14 02:15:52;;;;;;;39.00;22.58;;;;;;;11.52;100.00;99701.91;5067920;28;20083;-67
2021/10/14 02:18:36;;;;;;;40.05;21.77;;;;;;;11.52;100.00;99696.59;5067712;28;20052;-66
2021/10/14 02:21:22;;;;;;;36.88;21.48;;;;;;;11.57;100.00;99691.19;5068092;28;20570;-66
2021/10/14 02:24:06;;;;;;;41.70;22.58;;;;;;;11.58;100.00;99699.13;5069703;28;20074;-68
2021/10/14 02:26:50;;;;;;;33.35;19.77;;;;;;;11.60;100.00;99691.13;5063606;28;20052;-65
2021/10/14 02:29:35;;;;;;;37.22;19.05;;;;;;;11.61;100.00;99690.25;5066077;28;20102;-65
2021/10/14 02:32:19;;;;;;;31.52;18.48;;;;;;;11.56;100.00;99693.00;5065083;28;20526;-66
2021/10/14 02:35:05;;;;;;;28.10;17.52;;;;;;;11.53;100.00;99679.78;5074787;28;20091;-64
2021/10/14 02:37:50;;;;;;;29.70;17.58;;;;;;;11.51;100.00;99678.94;5074228;28;20076;-65
2021/10/14 02:40:34;;;;;;;33.05;17.30;;;;;;;11.50;100.00;99679.88;5056644;28;20411;-65
2021/10/14 02:43:18;;;;;;;38.15;16.42;;;;;;;11.50;100.00;99668.34;5065599;28;20050;-66
2021/10/14 02:46:03;;;;;;;22.65;15.05;;;;;;;11.51;100.00;99678.94;5065344;28;20055;-64
2021/10/14 02:48:48;;;;;;;28.10;14.52;;;;;;;11.58;100.00;99691.16;5065487;28;20110;-64
2021/10/14 02:51:32;;;;;;;24.48;15.05;;;;;;;11.58;100.00;99693.81;5060421;28;20165;-64
2021/10/14 02:54:17;;;;;;;33.83;15.48;;;;;;;11.56;100.00;99689.47;5058994;28;20046;-66
2021/10/14 02:57:01;;;;;;;22.58;13.55;;;;;;;11.57;100.00;99688.53;5065620;28;20578;-67
2021/10/14 02:59:46;;;;;;;25.77;13.20;;;;;;;11.57;100.00;99683.22;5066304;28;20051;-66
2021/10/14 03:02:30;;;;;;;22.00;12.48;;;;;;;11.59;100.00;99684.94;5066638;28;20051;-66
2021/10/14 03:05:15;;;;;;;22.70;12.48;;;;;;;11.57;100.00;99683.22;5065102;28;20091;-66
2021/10/14 03:08:01;;;;;;;29.52;12.63;;;;;;;11.60;100.00;99688.47;5048366;28;20067;-66
2021/10/14 03:10:46;;;;;;;25.23;12.40;;;;;;;11.61;100.00;99684.94;5059826;28;20543;-66
2021/10/14 03:13:30;;;;;;;21.50;12.77;;;;;;;11.60;100.00;99686.75;5066817;28;20051;-66
2021/10/14 03:16:17;;;;;;;25.40;11.55;;;;;;;11.66;100.00;99683.91;5064387;28;20047;-69
2021/10/14 03:19:02;;;;;;;21.55;12.18;;;;;;;11.67;100.00;99676.81;5068888;28;20071;-66
2021/10/14 03:21:49;;;;;;;21.42;11.98;;;;;;;11.70;100.00;99687.34;5068045;28;20113;-67
2021/10/14 03:24:33;;;;;;;21.65;11.45;;;;;;;11.71;100.00;99678.50;5047878;28;20055;-67
2021/10/14 03:27:18;;;;;;;21.33;10.77;;;;;;;11.69;100.00;99673.22;5049032;28;20051;-64
2021/10/14 03:30:04;;;;;;;24.02;10.70;;;;;;;11.72;100.00;99669.59;5065603;28;20047;-66
2021/10/14 03:32:48;;;;;;;17.38;10.43;;;;;;;11.72;100.00;99666.94;5068054;28;20062;-65
2021/10/14 03:35:34;;;;;;;16.63;10.15;;;;;;;11.70;100.00;99664.31;5051937;28;20832;-65
2021/10/14 03:38:19;;;;;;;19.73;11.05;;;;;;;11.65;100.00;99660.91;5066897;28;20059;-66
2021/10/14 03:41:04;;;;;;;20.88;10.50;;;;;;;11.60;100.00;99654.88;5048224;28;20097;-67
2021/10/14 03:43:49;;;;;;;23.70;10.13;;;;;;;11.57;100.00;99656.69;5060995;28;20098;-64
2021/10/14 03:46:33;;;;;;;22.83;10.65;;;;;;;11.54;100.00;99651.44;5067769;28;20487;-64
2021/10/14 03:49:18;;;;;;;;;;;;;;;11.60;100.00;99652.22;5065227;28;20094;-66
2021/10/14 03:52:04;;;;;;;25.00;10.03;;;;;;;11.50;100.00;99649.78;5067428;28;19923;-66
2021/10/14 03:54:49;;;;;;;19.15;9.80;;;;;;;11.47;100.00;99647.22;5052249;28;20047;-66
2021/10/14 03:57:34;;;;;;;20.88;9.43;;;;;;;11.52;100.00;99647.97;5065128;28;20055;-66
2021/10/14 04:00:18;;;;;;;17.33;9.05;;;;;;;11.55;100.00;99643.44;5078283;28;20047;-66
2021/10/14 04:03:03;;;;;;;15.10;8.45;;;;;;;11.62;100.00;99639.75;5058180;28;20052;-67
2021/10/14 04:05:48;;;;;;;19.50;9.43;;;;;;;11.61;100.00;99634.47;5070339;28;20051;-63
2021/10/14 04:08:33;;;;;;;23.50;8.82;;;;;;;11.61;100.00;99629.16;5083027;28;20039;-64
2021/10/14 04:11:17;;;;;;;18.35;8.63;;;;;;;11.64;100.00;99624.66;5052844;28;20549;-63
2021/10/14 04:14:02;;;;;;;15.48;8.95;;;;;;;11.64;100.00;99615.81;5063559;28;20629;-61
2021/10/14 04:16:46;;;;;;;19.58;8.70;;;;;;;11.63;100.00;99614.94;5046700;28;20067;-64
2021/10/14 04:19:31;;;;;;;18.02;8.35;;;;;;;11.67;100.00;99610.44;5054725;28;20571;-61
2021/10/14 04:22:19;;;;;;;19.10;8.73;;;;;;;11.69;100.00;99604.16;5049597;28;20578;-63
2021/10/14 04:25:05;;;;;;;19.50;8.50;;;;;;;11.72;100.00;99603.19;5062335;28;20547;-68
2021/10/14 04:27:50;;;;;;;13.23;8.10;;;;;;;11.70;100.00;99597.03;5057934;28;20178;-67
2021/10/14 04:30:34;;;;;;;19.25;8.70;;;;;;;11.72;100.00;99603.19;5080137;28;20105;-65
2021/10/14 04:33:19;;;;;;;12.57;7.97;;;;;;;11.67;100.00;99595.34;5082037;28;20101;-66
2021/10/14 04:36:04;;;;;;;13.65;7.82;;;;;;;11.69;100.00;99605.94;5079517;28;20114;-64
2021/10/14 04:38:49;;;;;;;13.25;7.78;;;;;;;11.70;100.00;99595.25;5046567;28;20401;-66
2021/10/14 04:41:35;;;;;;;25.23;8.15;;;;;;;11.71;100.00;99594.34;5045257;28;20421;-66
2021/10/14 04:44:19;;;;;;;19.88;8.48;;;;;;;11.73;100.00;99589.00;5063192;28;20055;-63
2021/10/14 04:47:08;;;;;;;20.17;8.45;;;;;;;11.78;100.00;99585.31;5076059;28;20123;-62
2021/10/14 04:49:53;;;;;;;18.52;7.50;;;;;;;11.78;100.00;99587.97;5064877;28;20051;-68
2021/10/14 04:52:38;;;;;;;12.27;7.30;;;;;;;11.69;100.00;99582.03;5064912;28;20399;-63
2021/10/14 04:55:23;;;;;;;14.55;8.55;;;;;;;11.73;100.00;99568.63;5065844;28;20067;-63
2021/10/14 04:58:08;;;;;;;14.60;7.65;;;;;;;11.74;100.00;99577.44;5058291;28;20055;-64
2021/10/14 05:00:52;;;;;;;19.00;8.23;;;;;;;11.81;100.00;99585.22;5062768;28;20094;-69
2021/10/14 05:03:39;;;;;;;16.75;7.65;;;;;;;11.85;100.00;99589.53;5061448;28;20052;-67
2021/10/14 05:06:24;;;;;;;18.60;8.45;;;;;;;11.89;100.00;99596.50;5051434;28;20070;-65
2021/10/14 05:09:08;;;;;;;16.15;8.05;;;;;;;11.93;100.00;99597.28;5049577;28;20047;-71
2021/10/14 05:11:53;;;;;;;19.67;8.23;;;;;;;11.91;100.00;99597.31;5050636;28;20052;-63
2021/10/14 05:14:38;;;;;;;18.90;8.25;;;;;;;11.90;100.00;99587.63;5062680;28;20216;-65
2021/10/14 05:17:23;;;;;;;15.50;7.47;;;;;;;11.94;100.00;99589.28;5074629;28;20060;-67
2021/10/14 05:20:09;;;;;;;18.05;7.90;;;;;;;12.00;100.00;99572.28;5044975;28;20155;-66
2021/10/14 05:22:53;;;;;;;19.80;9.82;;;;;;;12.05;100.00;99571.25;5062348;28;20179;-67
2021/10/14 05:25:38;;;;;;;17.40;8.00;;;;;;;12.15;100.00;99583.31;5080338;28;20139;-66
2021/10/14 05:28:23;;;;;;;16.02;8.10;;;;;;;12.25;100.00;99578.63;5066706;28;20047;-66
2021/10/14 05:31:09;;;;;;;14.60;7.28;;;;;;;12.28;99.07;99568.78;5068672;28;20527;-67
2021/10/14 05:33:54;;;;;;;13.73;6.93;;;;;;;12.30;97.58;99568.75;5068528;28;20083;-63
2021/10/14 05:36:39;;;;;;;15.27;7.20;;;;;;;12.26;96.12;99565.28;5052927;28;20462;-67
2021/10/14 05:39:24;;;;;;;;;;;;;;;12.34;96.08;99570.38;5052434;28;20400;-65
2021/10/14 05:42:08;;;;;;;18.42;8.18;;;;;;;12.38;95.40;99569.38;5069686;28;20484;-67
2021/10/14 05:44:53;;;;;;;15.52;7.13;;;;;;;12.39;94.07;99560.47;5058282;28;20066;-62
2021/10/14 05:47:37;;;;;;;21.90;7.18;;;;;;;12.44;92.44;99563.84;5070216;28;20683;-64
2021/10/14 05:50:22;;;;;;;16.50;6.90;;;;;;;12.47;91.49;99561.09;5068053;28;20221;-64
2021/10/14 05:53:06;;;;;;;16.33;7.57;;;;;;;12.43;90.95;99562.13;5063231;28;20060;-66
2021/10/14 05:55:51;;;;;;;19.33;6.82;;;;;;;12.45;89.88;99565.59;5067006;28;20047;-65
2021/10/14 05:58:38;;;;;;;13.82;6.95;;;;;;;12.48;88.73;99565.50;5046036;28;20068;-76
2021/10/14 06:01:22;;;;;;;17.05;6.97;;;;;;;12.48;88.08;99560.19;5048502;28;20063;-65
2021/10/14 06:04:06;;;;;;;19.90;6.82;;;;;;;12.45;87.10;99560.28;5057968;28;20059;-66
2021/10/14 06:06:51;;;;;;;17.67;6.93;;;;;;;12.46;86.50;99554.91;5067948;28;20059;-64
2021/10/14 06:09:35;;;;;;;19.65;6.82;;;;;;;12.43;86.44;99565.63;5068873;28;20147;-64
2021/10/14 06:12:20;;;;;;;15.77;6.68;;;;;;;12.43;85.80;99564.78;5061635;28;20143;-64
2021/10/14 06:15:06;;;;;;;29.75;6.95;;;;;;;12.43;85.34;99560.31;5064202;28;20043;-64
2021/10/14 06:17:50;;;;;;;15.40;7.00;;;;;;;12.46;84.81;99559.38;5062024;28;20106;-71
2021/10/14 06:20:35;;;;;;;18.80;7.20;;;;;;;12.48;85.00;99552.19;5057724;28;20145;-64
2021/10/14 06:23:19;;;;;;;18.38;6.97;;;;;;;12.55;83.98;99554.63;5045454;28;20098;-62
2021/10/14 06:26:04;;;;;;;19.20;7.32;;;;;;;12.51;83.67;99552.97;5048468;28;20540;-64
2021/10/14 06:28:50;;;;;;;18.98;7.18;;;;;;;12.46;82.15;99554.06;5056121;28;20121;-61
2021/10/14 06:31:34;;;;;;;18.92;7.10;;;;;;;12.45;81.63;99550.50;5068641;28;20067;-63
2021/10/14 06:34:18;;;;;;;18.02;7.00;;;;;;;12.46;81.97;99538.94;5066250;28;20145;-63
2021/10/14 06:37:03;;;;;;;17.50;6.72;;;;;;;12.62;81.30;99545.53;5067883;28;20070;-67
2021/10/14 06:39:47;;;;;;;20.60;6.32;;;;;;;12.64;80.15;99543.72;5066352;28;20067;-63
2021/10/14 06:42:32;;;;;;;19.85;7.07;;;;;;;12.63;79.69;99539.28;5046346;28;20043;-64
2021/10/14 06:45:17;;;;;;;22.75;7.22;;;;;;;12.60;79.02;99543.84;5063886;28;20102;-62
2021/10/14 06:48:02;;;;;;;;;;;;;;;12.71;79.40;99542.56;5066003;28;20062;-63
2021/10/14 06:50:46;;;;;;;17.63;6.90;;;;;;;12.68;78.73;99534.72;5068518;28;20501;-64
2021/10/14 06:53:31;;;;;;;22.10;6.60;;;;;;;12.66;78.38;99533.88;5066062;28;20419;-66
2021/10/14 06:56:16;;;;;;;;;;;;;;;12.52;78.10;99537.88;5066565;28;20043;-67
2021/10/14 06:59:03;;;;;;;15.95;7.10;;;;;;;12.42;78.55;99541.78;5078172;28;19970;-64
2021/10/14 07:01:48;;;;;;;18.60;7.38;;;;;;;12.53;78.24;99543.16;5079301;28;20586;-64
2021/10/14 07:04:32;;;;;;;19.90;6.68;;;;;;;12.59;77.77;99534.97;5047095;28;20063;-65
2021/10/14 07:07:17;;;;;;;21.45;7.22;;;;;;;12.61;77.99;99524.28;5046430;28;20055;-65
2021/10/14 07:10:07;;;;;;;18.92;6.82;;;;;;;12.62;77.81;99532.22;5053997;28;20575;-64
2021/10/14 07:12:52;;;;;;;26.67;7.07;;;;;;;12.65;77.68;99518.84;5053305;28;20094;-66
2021/10/14 07:15:37;;;;;;;17.48;6.53;;;;;;;12.59;77.45;99527.00;5061879;28;20079;-66
2021/10/14 07:18:21;;;;;;;19.45;6.80;;;;;;;12.58;76.62;99521.75;5048779;28;20106;-63
2021/10/14 07:21:08;;;;;;;28.08;6.75;;;;;;;12.57;76.40;99528.84;5058258;28;20051;-63
2021/10/14 07:23:52;;;;;;;15.82;6.63;;;;;;;12.44;76.73;99537.25;5062090;28;20589;-64
2021/10/14 07:26:37;;;;;;;17.05;6.07;;;;;;;12.43;77.21;99533.72;5080581;28;20214;-64
2021/10/14 07:29:22;;;;;;;20.05;6.00;;;;;;;12.22;77.32;99523.75;5065319;28;20140;-63
2021/10/14 07:32:07;;;;;;;19.80;5.85;;;;;;;12.17;77.16;99536.31;5065480;28;20043;-63
2021/10/14 07:34:52;;;;;;;25.77;6.82;;;;;;;12.06;76.96;99530.44;5063200;28;20056;-65
2021/10/14 07:37:36;;;;;;;18.48;6.13;;;;;;;12.14;77.58;99532.88;5052093;28;20066;-65
2021/10/14 07:40:20;;;;;;;24.95;6.05;;;;;;;12.13;77.47;99517.84;5052467;28;20060;-66
2021/10/14 07:43:09;;;;;;;19.63;5.88;;;;;;;12.21;76.96;99529.13;5048807;28;20097;-67
2021/10/14 07:45:54;;;;;;;21.85;6.97;;;;;;;12.21;76.67;99531.78;5065761;28;20106;-66
2021/10/14 07:48:39;;;;;;;;;;;;;;;12.23;77.14;99519.31;5079813;28;20047;-69
2021/10/14 07:51:23;;;;;;;18.08;6.15;;;;;;;12.03;77.27;99519.06;5065777;28;20284;-65
2021/10/14 07:54:08;;;;;;;22.98;7.03;;;;;;;11.97;77.72;99501.50;5064029;28;20071;-64
2021/10/14 07:56:54;;;;;;;17.70;6.25;;;;;;;12.08;77.14;99498.53;5050430;28;22034;-65
2021/10/14 07:59:40;;;;;;;21.33;6.65;;;;;;;12.18;76.75;99502.66;5065604;28;20215;-68
2021/10/14 08:02:25;;;;;;;26.15;6.80;;;;;;;12.16;76.65;99501.81;5086103;28;20128;-68
2021/10/14 08:05:10;;;;;;;27.40;6.50;;;;;;;12.13;76.36;99470.88;5072547;28;20051;-65
2021/10/14 08:07:55;;;;;;;23.88;6.85;;;;;;;12.34;75.61;99495.94;5065622;28;20089;-70
2021/10/14 08:10:41;;;;;;;24.23;6.32;;;;;;;12.31;75.30;99490.72;5053750;28;20250;-66
2021/10/14 08:13:26;;;;;;;17.75;7.10;;;;;;;12.33;75.52;99487.09;5062166;28;20051;-65
2021/10/14 08:16:11;;;;;;;23.98;7.03;;;;;;;12.57;75.17;99491.63;5065416;28;20052;-66
2021/10/14 08:18:56;;;;;;;31.95;8.93;;;;;;;12.61;74.69;99498.56;5063715;28;20071;-65
2021/10/14 08:21:40;;;;;;;20.40;7.55;;;;;;;12.58;75.04;99489.84;5065281;28;20483;-63
2021/10/14 08:24:25;;;;;;;18.05;7.18;;;;;;;12.66;75.26;99491.31;5065327;28;20055;-64
2021/10/14 08:27:09;;;;;;;;;;;;;;;12.63;75.41;99509.16;5046519;28;20176;-69
2021/10/14 08:29:54;;;;;;;27.23;7.07;;;;;;;12.48;76.57;99502.56;5063091;28;19923;-66
2021/10/14 08:32:39;;;;;;;14.23;6.25;;;;;;;12.54;77.45;99510.31;5064476;28;20105;-65
2021/10/14 08:35:27;;;;;;;21.83;6.95;;;;;;;12.57;78.13;99512.91;5030687;28;20182;-65
2021/10/14 08:38:12;;;;;;;21.65;7.00;;;;;;;12.53;78.36;99494.41;5055701;28;20060;-67
2021/10/14 08:40:57;;;;;;;19.38;6.90;;;;;;;12.52;78.85;99506.84;5058672;28;20099;-65
2021/10/14 08:43:42;;;;;;;26.40;7.13;;;;;;;12.44;79.68;99500.03;5056265;28;20051;-64
2021/10/14 08:46:26;;;;;;;;;;;;;;;12.55;80.12;99504.06;5067724;28;20137;-67
2021/10/14 08:49:11;;;;;;;25.85;8.38;;;;;;;12.62;79.76;99499.47;5074158;28;19970;-66
2021/10/14 08:51:59;;;;;;;21.60;8.32;;;;;;;12.51;79.64;99498.94;5054374;28;20048;-66
2021/10/14 08:54:45;;;;;;;16.17;7.13;;;;;;;12.67;79.25;99495.69;5055028;28;20056;-66
2021/10/14 08:57:30;;;;;;;23.88;7.43;;;;;;;12.77;79.62;99494.50;5059722;28;20091;-68
2021/10/14 09:00:14;;;;;;;21.83;7.03;;;;;;;12.76;78.54;99494.53;5061466;28;20571;-67
2021/10/14 09:02:59;;;;;;;;;;;;;;;12.70;78.62;99500.09;5061266;28;20097;-66
2021/10/14 09:05:48;;;;;;;35.37;11.90;;;;;;;12.74;78.91;99494.59;5046244;28;20276;-72
2021/10/14 09:08:40;;;;;;;27.08;9.07;;;;;;;12.84;78.39;99485.41;5060193;28;20416;-68
2021/10/14 09:11:27;;;;;;;31.25;7.00;;;;;;;12.62;77.05;99481.69;5064296;28;20356;-65
2021/10/14 09:14:12;;;;;;;25.40;6.78;;;;;;;12.63;76.45;99480.75;5063201;28;20136;-66
2021/10/14 09:16:58;;;;;;;25.27;6.97;;;;;;;12.53;76.10;99481.13;5062236;28;20044;-68
2021/10/14 09:19:42;;;;;;;26.35;6.80;;;;;;;12.60;76.47;99480.88;5066276;28;20074;-66
2021/10/14 09:22:27;;;;;;;23.23;7.35;;;;;;;12.59;76.74;99484.44;5072990;28;20475;-70
2021/10/14 09:25:29;;;;;;;35.85;7.88;;;;;;;12.54;76.49;99483.72;5074995;28;20091;-65
2021/10/14 09:28:19;;;;;;;30.60;7.38;;;;;;;12.51;77.67;99475.84;5071965;28;20058;-69
2021/10/14 09:31:07;;;;;;;30.73;7.22;;;;;;;12.63;78.58;99483.41;5059977;28;20051;-70
2021/10/14 09:33:53;;;;;;;22.70;7.60;;;;;;;12.58;79.55;99473.88;5081772;28;20044;-68
2021/10/14 09:36:39;;;;;;;32.78;7.35;;;;;;;12.49;80.01;99480.34;5065515;28;20055;-65
2021/10/14 09:39:24;;;;;;;24.08;7.28;;;;;;;12.42;82.06;99473.50;5061891;28;20070;-68
2021/10/14 09:42:09;;;;;;;22.45;7.45;;;;;;;12.37;84.11;99478.09;5063808;28;20488;-66
2021/10/14 09:44:55;;;;;;;27.25;7.63;;;;;;;12.31;87.11;99472.94;5065938;28;20388;-67
2021/10/14 09:47:49;;;;;;;24.17;7.88;;;;;;;12.31;88.59;99477.41;5059572;28;20175;-65
2021/10/14 09:50:46;;;;;;;28.23;7.60;;;;;;;12.23;91.07;99474.97;5057822;28;20060;-71
2021/10/14 09:53:32;;;;;;;32.50;8.70;;;;;;;12.21;93.39;99475.94;5056080;28;20147;-70
2021/10/14 09:56:17;;;;;;;;;;;;;;;12.29;95.00;99482.78;5057714;28;20575;-72
2021/10/14 09:59:02;;;;;;;27.20;8.25;;;;;;;12.19;96.88;99480.47;5058023;28;19970;-73
2021/10/14 10:01:50;;;;;;;30.40;8.90;;;;;;;12.19;98.77;99476.00;5065648;28;20052;-66
2021/10/14 10:04:36;;;;;;;28.63;8.60;;;;;;;12.18;99.70;99476.06;5055388;28;20082;-71
2021/10/14 10:07:21;;;;;;;25.45;9.73;;;;;;;12.02;100.00;99472.13;5058769;28;20527;-70
2021/10/14 10:10:07;;;;;;;25.77;9.02;;;;;;;11.92;100.00;99471.56;5070932;28;20047;-66
2021/10/14 10:12:55;;;;;;;30.10;10.02;;;;;;;11.78;100.00;99478.16;5073781;28;20127;-65
2021/10/14 10:15:41;;;;;;;30.52;10.48;;;;;;;11.57;100.00;99470.78;5060824;28;20126;-66
2021/10/14 10:18:28;;;;;;;27.88;9.60;;;;;;;11.54;100.00;99470.88;5056227;28;20039;-69
2021/10/14 10:21:43;;;;;;;32.55;10.07;;;;;;;11.71;100.00;99469.50;5060892;28;20473;-65
2021/10/14 10:24:31;;;;;;;30.55;9.18;;;;;;;11.69;100.00;99468.69;4959832;28;20102;-66
2021/10/14 10:27:33;;;;;;;27.92;9.35;;;;;;;11.74;100.00;99466.78;4960253;28;20063;-65
2021/10/14 10:30:29;;;;;;;35.20;9.43;;;;;;;11.58;100.00;99468.09;4947094;28;20482;-68
2021/10/14 10:34:01;;;;;;;29.52;9.25;;;;;;;11.47;100.00;99472.84;4957330;28;20049;-68
2021/10/14 10:36:51;;;;;;;37.38;8.73;;;;;;;11.40;100.00;99473.06;4931794;28;20054;-69
2021/10/14 10:39:48;;;;;;;36.63;9.10;;;;;;;11.47;100.00;99469.34;4921486;29;20062;-67
2021/10/14 10:42:42;;;;;;;32.17;8.68;;;;;;;11.56;100.00;99458.44;4945065;28;20124;-68
2021/10/14 10:45:30;;;;;;;29.35;8.75;;;;;;;11.55;100.00;99464.69;4949198;28;20061;-72
2021/10/14 10:48:20;;;;;;;30.85;9.15;;;;;;;11.41;100.00;99462.41;4936984;28;20054;-65
2021/10/14 10:51:06;;;;;;;39.45;10.00;;;;;;;11.52;100.00;99456.78;4958657;28;20046;-66
2021/10/14 10:53:52;;;;;;;35.60;9.63;;;;;;;11.59;100.00;99448.59;4961233;28;20089;-66
2021/10/14 10:56:38;;;;;;;31.55;10.48;;;;;;;11.51;100.00;99445.28;4936170;28;20058;-72
2021/10/14 10:59:24;;;;;;;34.67;9.75;;;;;;;11.61;100.00;99445.94;4934386;28;20097;-71
2021/10/14 11:02:10;;;;;;;30.08;10.80;;;;;;;11.56;100.00;99442.50;5060820;28;20523;-70
2021/10/14 11:04:56;;;;;;;35.58;10.38;;;;;;;11.61;100.00;99444.16;5043805;28;20094;-66
2021/10/14 11:07:41;;;;;;;41.03;10.73;;;;;;;11.48;100.00;99442.72;5048570;28;20571;-67
2021/10/14 11:10:29;;;;;;;39.97;10.15;;;;;;;11.50;100.00;99447.97;5054310;28;20413;-69
2021/10/14 11:13:14;;;;;;;37.28;11.15;;;;;;;11.47;100.00;99451.59;5048322;28;20059;-68
2021/10/14 11:15:59;;;;;;;36.35;10.18;;;;;;;11.44;100.00;99457.00;5057255;28;20047;-67
2021/10/14 11:18:47;;;;;;;38.40;11.10;;;;;;;11.34;100.00;99454.63;5056747;28;20062;-72
2021/10/14 11:21:32;;;;;;;34.30;9.65;;;;;;;11.31;100.00;99449.44;5050219;28;20113;-70
2021/10/14 11:24:21;;;;;;;40.17;9.57;;;;;;;11.36;100.00;99444.88;5057439;28;20054;-66
2021/10/14 11:27:17;;;;;;;35.13;10.20;;;;;;;11.37;100.00;99443.94;5068578;28;20047;-69
2021/10/14 11:30:19;;;;;;;36.92;10.40;;;;;;;11.34;100.00;99439.59;5055062;28;20174;-71
2021/10/14 11:33:10;;;;;;;31.25;10.20;;;;;;;11.36;100.00;99434.25;5056453;28;20086;-71
2021/10/14 11:35:58;;;;;;;30.92;9.73;;;;;;;11.31;100.00;99437.03;5059937;28;20447;-68
2021/10/14 11:38:56;;;;;;;42.20;10.40;;;;;;;11.38;100.00;99433.28;5054713;28;20071;-69
2021/10/14 11:41:41;;;;;;;30.50;9.63;;;;;;;11.28;100.00;99428.28;5051475;28;20055;-73
2021/10/14 11:44:33;;;;;;;36.95;9.90;;;;;;;11.32;100.00;99441.41;5049713;28;20048;-67
2021/10/14 11:47:21;;;;;;;33.38;10.48;;;;;;;11.39;100.00;99432.38;5055853;28;20086;-69
2021/10/14 11:50:13;;;;;;;36.58;10.30;;;;;;;11.38;100.00;99437.72;5050676;28;20094;-69
2021/10/14 11:53:03;;;;;;;33.97;10.05;;;;;;;11.33;100.00;99443.19;5057024;28;20055;-67
2021/10/14 11:56:03;;;;;;;31.73;10.07;;;;;;;11.35;100.00;99428.06;5051210;28;20464;-67
2021/10/14 11:58:48;;;;;;;32.78;10.13;;;;;;;11.22;100.00;99424.03;5057274;28;20048;-66
2021/10/14 12:01:41;;;;;;;40.90;11.88;;;;;;;11.03;100.00;99420.13;5049622;28;20528;-67
2021/10/14 12:04:31;;;;;;;30.48;10.48;;;;;;;11.08;100.00;99415.56;5050643;28;20102;-67
2021/10/14 12:07:19;;;;;;;41.58;12.02;;;;;;;11.22;100.00;99412.53;5056868;28;20662;-67
2021/10/14 12:10:05;;;;;;;43.90;11.40;;;;;;;11.20;100.00;99415.22;5055284;28;20151;-65
2021/10/14 12:13:04;;;;;;;34.00;11.05;;;;;;;11.29;100.00;99412.31;5040639;28;20056;-66
2021/10/14 12:15:50;;;;;;;38.35;11.95;;;;;;;11.22;100.00;99407.22;5057406;28;20573;-65
2021/10/14 12:18:35;;;;;;;36.83;11.93;;;;;;;11.14;100.00;99410.09;5051337;28;20043;-64
2021/10/14 12:21:32;;;;;;;45.05;12.75;;;;;;;11.20;100.00;99401.09;5049390;28;20055;-66
2021/10/14 12:24:29;;;;;;;37.58;13.38;;;;;;;11.21;100.00;99398.41;5055200;28;20044;-66
2021/10/14 12:27:16;;;;;;;43.42;13.23;;;;;;;11.19;100.00;99391.41;5060661;28;20055;-65
2021/10/14 12:30:01;;;;;;;37.38;12.65;;;;;;;11.18;100.00;99393.16;5040280;28;20067;-62
2021/10/14 12:32:46;;;;;;;;;;;;;;;11.21;100.00;99394.88;5046352;28;20047;-65
2021/10/14 12:35:32;;;;;;;38.15;14.30;;;;;;;11.22;100.00;99386.88;5040563;28;20427;-65
2021/10/14 12:38:18;;;;;;;39.90;13.95;;;;;;;11.34;100.00;99380.31;5054143;28;20056;-64
2021/10/14 12:41:14;;;;;;;45.53;15.13;;;;;;;11.31;100.00;99381.28;5062927;28;20536;-68
2021/10/14 12:44:08;;;;;;;36.72;14.15;;;;;;;11.35;100.00;99374.97;5047940;28;20524;-68
2021/10/14 12:50:11;;;;;;;42.08;15.23;;;;;;;11.33;100.00;99367.97;5046222;28;22157;-63
2021/10/14 12:53:15;;;;;;;36.28;13.82;;;;;;;11.39;100.00;99367.81;5053434;28;20051;-70
2021/10/14 12:56:01;;;;;;;42.70;13.15;;;;;;;11.42;100.00;99378.31;5059774;28;20535;-68
2021/10/14 12:58:48;;;;;;;43.10;13.48;;;;;;;11.38;100.00;99366.94;5049689;28;20048;-71
2021/10/14 13:01:35;;;;;;;41.72;13.68;;;;;;;11.37;100.00;99369.63;5051825;28;20126;-69
2021/10/14 13:04:21;;;;;;;37.60;11.85;;;;;;;11.35;100.00;99352.88;5027625;28;20098;-67
2021/10/14 13:07:06;;;;;;;30.75;12.27;;;;;;;11.43;100.00;99356.19;5042074;28;20043;-67
2021/10/14 13:09:52;;;;;;;31.35;10.25;;;;;;;11.36;100.00;99354.63;5053837;28;20820;-67
2021/10/14 13:12:36;;;;;;;25.15;9.55;;;;;;;11.31;100.00;99356.53;5044164;28;20486;-66
2021/10/14 13:15:23;;;;;;;25.75;8.75;;;;;;;11.24;100.00;99353.16;5052965;28;20082;-69
2021/10/14 13:18:08;;;;;;;30.95;10.30;;;;;;;11.10;100.00;99349.19;5045688;28;20055;-64
2021/10/14 13:20:57;;;;;;;;;;;;;;;11.29;100.00;99363.66;5056879;28;20090;-65
2021/10/14 13:23:42;;;;;;;28.45;9.75;;;;;;;11.29;100.00;99353.94;5058959;28;19982;-66
2021/10/14 13:26:28;;;;;;;29.92;9.50;;;;;;;11.36;100.00;99354.63;5053388;28;20539;-66